createdAt,value
2022-12-19T00:18:42.964Z,67.36
2022-12-19T00:33:33.519Z,70.48
2022-12-19T00:48:22.384Z,65.41
2022-12-19T01:03:12.676Z,64.76
2022-12-19T01:18:02.258Z,59.23
2022-12-19T01:32:51.845Z,65.33
2022-12-19T01:47:53.559Z,61.74
2022-12-19T02:02:47.656Z,61.47
2022-12-19T02:18:04.009Z,60.99
2022-12-19T02:33:13.769Z,54.46
2022-12-19T02:48:09.158Z,52.56
2022-12-19T03:03:24.680Z,56.00
2022-12-19T03:18:20.750Z,54.78
2022-12-19T03:33:12.214Z,59.81
2022-12-19T03:48:01.742Z,65.28
2022-12-19T04:02:52.357Z,69.60
2022-12-19T04:17:49.471Z,64.04
2022-12-19T04:32:44.554Z,60.62
2022-12-19T04:47:37.118Z,66.34
2022-12-19T05:02:26.669Z,55.89
2022-12-19T05:17:16.276Z,61.26
2022-12-19T05:32:05.793Z,59.11
2022-12-19T05:46:55.918Z,61.13
2022-12-19T06:01:45.506Z,58.44
2022-12-19T06:16:36.005Z,67.83
2022-12-19T06:46:23.202Z,55.93
2022-12-19T07:01:21.384Z,59.22
2022-12-19T07:16:17.153Z,56.07
2022-12-19T07:31:06.260Z,51.70
2022-12-19T07:45:56.775Z,59.97
2022-12-19T08:00:46.219Z,46.29
2022-12-19T08:15:36.623Z,50.40
2022-12-19T08:30:27.592Z,40.58
2022-12-19T08:45:18.590Z,55.69
2022-12-19T09:15:26.012Z,58.97
2022-12-19T09:30:17.205Z,43.49
2022-12-19T09:45:14.527Z,37.39
2022-12-19T10:00:06.083Z,38.37
2022-12-19T10:15:17.619Z,31.19
2022-12-19T10:30:15.781Z,30.72
2022-12-19T10:45:09.426Z,29.93
2022-12-19T11:00:15.531Z,33.09
2022-12-19T11:20:28.160Z,48.79
2022-12-19T11:45:03.534Z,35.03
2022-12-19T12:00:04.502Z,32.53
2022-12-19T12:26:25.064Z,30.71
2022-12-19T12:35:30.456Z,32.60
2022-12-19T12:45:22.925Z,32.20
2022-12-19T13:00:29.374Z,33.29
2022-12-19T13:15:28.433Z,31.88
2022-12-19T13:30:21.328Z,30.64
2022-12-19T13:45:24.897Z,37.02
2022-12-19T14:00:30.234Z,35.66
2022-12-19T14:15:25.323Z,37.78
2022-12-19T14:30:30.109Z,36.57
2022-12-19T14:54:04.232Z,32.70
2022-12-19T15:01:07.854Z,38.39
2022-12-19T15:15:19.560Z,38.97
2022-12-19T15:30:14.733Z,38.81
2022-12-19T15:45:06.840Z,38.82
2022-12-19T15:59:56.003Z,37.89
2022-12-19T16:14:46.360Z,44.02
2022-12-19T16:29:40.913Z,44.67
2022-12-19T16:59:29.638Z,48.94
2022-12-19T17:14:22.715Z,63.74
2022-12-19T17:29:12.343Z,75.77
2022-12-19T17:44:02.610Z,54.59
2022-12-19T18:13:45.131Z,50.30
2022-12-19T18:28:37.277Z,50.18
2022-12-19T18:43:27.603Z,51.90
2022-12-19T18:58:17.304Z,48.77
2022-12-19T19:13:10.304Z,50.58
2022-12-19T19:28:00.126Z,63.87
2022-12-19T19:57:57.466Z,50.04
2022-12-19T20:12:48.166Z,51.49
2022-12-19T20:27:39.218Z,50.52
2022-12-19T20:42:29.360Z,51.89
2022-12-19T20:57:19.524Z,55.24
2022-12-19T21:12:11.302Z,50.76
2022-12-19T21:27:01.258Z,49.92
2022-12-19T21:41:52.503Z,52.81
2022-12-19T21:56:43.286Z,51.96
2022-12-19T22:11:33.673Z,46.81
2022-12-19T22:26:24.217Z,45.81
2022-12-19T22:41:14.411Z,39.66
2022-12-19T22:56:05.763Z,42.99
2022-12-19T23:10:57.161Z,42.66
2022-12-19T23:25:50.197Z,45.26
2022-12-19T23:40:40.487Z,42.59
2022-12-19T23:55:30.374Z,43.14
